Main page
METAR-TAF:

METAR-TAF

Airports :

Madrid–Torrejón Airport

Madrid-Torrejón, Spain

latitude: 40-29N, longitude: 003-27W, elevation: 607 m

Current weather observation

The report was made 41 minutes ago, at 21:00 UTC
Calm wind
Temperature 14°C
Humidity 72%
Pressure 1014 hPa
Visibility 10 km or more
no clouds below 1500 m and no cumulonimbus

METAR: LETO 172100Z 00000KT CAVOK 14/09 Q1014 NOSIG

Time: 23:41 (21:41 UTC)

Forecast

The report was made 4 hours and 41 minutes ago, at 17:00 UTC
Forecast valid from 17 at 18 UTC to 18 at 18 UTC
Wind 5 kt from variable directions
Visibility 10 km or more
no clouds below 1500 m and no cumulonimbus
Becoming
from 18 at 12 UTC to 18 at 14 UTC
Wind 10 kt from the Northeast

TAF: LETO 171700Z 1718/1818 VRB05KT CAVOK TX21/1813Z TN12/1806Z BECMG 1812/1814 04010KT

Weather observations and forecasts of more than 4000 airports (METAR and TAF reports).

The available stations are represented by yellow and red dots on the map.

Hover mouse over dot to see the name of the station.

Then click to see weather observations and forecasts.

To change the map : click on the green buttons with a black cross to zoom in, on the green button with a dash to zoom out, or on the green arrows for adjacent maps.


METAR-TAF: